Time;durP1;ratioP1;P1;durP2;ratioP2;P2;SDS_P1;SDS_P2;PMS_P1;PMS_P2;Temp;Humidity;BMP_temperature;BMP_pressure;BME280_temperature;BME280_humidity;BME280_pressure;Samples;Min_cycle;Max_cycle;Signal;HPM_P1;HPM_P2
2023/01/15 00:01:59;;;;;;;;;;;12.00;99.90;;;;;;5112862;28;20344;-73
2023/01/15 00:04:26;;;;;;;;;;;12.00;99.90;;;;;;5112676;28;19911;-72
2023/01/15 00:06:53;;;;;;;;;;;12.00;99.90;;;;;;5112601;28;19904;-71
2023/01/15 00:09:19;;;;;;;;;;;12.00;99.90;;;;;;5112668;28;19904;-71
2023/01/15 00:11:45;;;;;;;;;;;11.90;99.90;;;;;;5112678;28;19904;-72
2023/01/15 00:14:13;;;;;;;;;;;11.90;99.90;;;;;;5112565;28;19904;-71
2023/01/15 00:16:41;;;;;;;;;;;11.90;99.90;;;;;;5112433;28;19915;-71
2023/01/15 00:19:13;;;;;;;;;;;11.90;99.90;;;;;;5093876;28;20347;-72
2023/01/15 00:21:39;;;;;;;;;;;11.80;99.90;;;;;;5112743;28;20319;-72
2023/01/15 00:32:57;;;;;;;;;;;11.70;99.90;;;;;;5112067;28;20052;-72
2023/01/15 00:35:23;;;;;;;;;;;11.70;99.90;;;;;;5093639;28;19915;-71
2023/01/15 00:37:53;;;;;;;;;;;11.70;99.90;;;;;;5112412;28;19920;-73
2023/01/15 00:40:21;;;;;;;;;;;11.70;99.90;;;;;;5061001;28;19910;-72
2023/01/15 00:42:47;;;;;;;;;;;11.70;99.90;;;;;;5112411;28;19969;-71
2023/01/15 00:45:15;;;;;;;;;;;11.70;99.90;;;;;;5111994;28;19912;-73
2023/01/15 00:47:59;;;;;;;;;;;11.70;99.90;;;;;;5111689;28;19964;-72
2023/01/15 00:50:25;;;;;;;;;;;11.70;99.90;;;;;;5112227;28;19904;-71
2023/01/15 00:52:51;;;;;;;;;;;11.70;99.90;;;;;;5093455;28;19910;-71
2023/01/15 00:55:30;;;;;;;;;;;11.70;99.90;;;;;;5110744;28;20309;-72
2023/01/15 00:57:59;;;;;;;;;;;11.70;99.90;;;;;;5086137;27;20014;-71
2023/01/15 01:00:25;;;;;;;;;;;11.80;99.90;;;;;;5132511;27;19986;-71
2023/01/15 01:02:51;;;;;;;;;;;11.80;99.90;;;;;;5132484;27;19941;-73
2023/01/15 01:05:16;;;;;;;;;;;11.80;99.90;;;;;;5132862;27;20308;-70
2023/01/15 01:07:42;;;;;;;;;;;11.80;99.90;;;;;;5113933;28;19911;-68
2023/01/15 01:10:18;;;;;;;;;;;11.80;99.90;;;;;;5132390;28;19907;-71
2023/01/15 01:12:44;;;;;;;;;;;11.70;99.90;;;;;;5132278;28;19937;-71
2023/01/15 01:15:10;;;;;;;;;;;11.70;99.90;;;;;;5132648;28;20000;-71
2023/01/15 01:17:37;;;;;;;;;;;11.60;99.90;;;;;;5113388;28;19912;-71
2023/01/15 01:20:03;;;;;;;;;;;11.60;99.90;;;;;;5132331;28;19910;-71
2023/01/15 01:22:29;;;;;;;;;;;11.50;99.90;;;;;;5132218;28;19908;-71
2023/01/15 01:24:54;;;;;;;;;;;11.50;99.90;;;;;;5132658;28;20048;-71
2023/01/15 01:27:20;;;;;;;;;;;11.40;99.90;;;;;;5113473;28;19956;-73
2023/01/15 01:29:52;;;;;;;;;;;11.40;99.90;;;;;;5111476;28;20375;-71
2023/01/15 01:32:18;;;;;;;;;;;11.40;99.90;;;;;;5111441;28;19907;-72
2023/01/15 01:34:47;;;;;;;;;;;11.30;99.90;;;;;;5111665;28;20256;-73
2023/01/15 01:37:12;;;;;;;;;;;11.30;99.90;;;;;;5111982;28;19914;-72
2023/01/15 01:39:39;;;;;;;;;;;11.30;99.90;;;;;;5111615;28;19908;-72
2023/01/15 01:42:13;;;;;;;;;;;11.30;99.90;;;;;;5111355;28;20008;-72
2023/01/15 01:44:39;;;;;;;;;;;11.40;99.90;;;;;;5111458;28;19912;-72
2023/01/15 01:47:09;;;;;;;;;;;11.40;99.90;;;;;;5111770;28;19956;-71
2023/01/15 01:49:36;;;;;;;;;;;11.40;99.90;;;;;;5111876;28;20339;-72
2023/01/15 01:52:05;;;;;;;;;;;11.40;99.90;;;;;;5111658;28;19903;-71
2023/01/15 01:54:34;;;;;;;;;;;11.40;99.90;;;;;;5111732;28;19990;-71
2023/01/15 01:57:01;;;;;;;;;;;11.40;99.90;;;;;;5092458;28;19911;-72
2023/01/15 01:59:26;;;;;;;;;;;11.40;99.90;;;;;;5114260;28;19954;-71
2023/01/15 02:02:00;;;;;;;;;;;11.40;99.90;;;;;;5115096;28;19903;-71
2023/01/15 02:04:28;;;;;;;;;;;11.40;99.90;;;;;;5114972;28;19923;-72
2023/01/15 02:06:55;;;;;;;;;;;11.50;99.90;;;;;;5096663;28;19908;-71
2023/01/15 02:09:21;;;;;;;;;;;11.50;99.90;;;;;;5115541;28;19904;-72
2023/01/15 02:11:57;;;;;;;;;;;11.50;99.90;;;;;;5115240;28;19974;-72
2023/01/15 02:14:32;;;;;;;;;;;11.50;99.90;;;;;;5114917;28;19904;-72
2023/01/15 02:17:19;;;;;;;;;;;11.50;99.90;;;;;;5115110;28;20018;-71
2023/01/15 02:20:14;;;;;;;;;;;11.40;99.90;;;;;;5096309;28;19907;-72
2023/01/15 02:22:40;;;;;;;;;;;11.40;99.90;;;;;;5024890;28;19917;-72
2023/01/15 02:25:18;;;;;;;;;;;11.50;99.90;;;;;;5114966;28;19910;-72
2023/01/15 02:27:48;;;;;;;;;;;11.50;99.90;;;;;;5096160;28;19952;-71
2023/01/15 02:30:32;;;;;;;;;;;11.50;99.90;;;;;;5114431;28;19915;-72
2023/01/15 02:33:05;;;;;;;;;;;11.40;99.90;;;;;;5114608;28;19903;-73
2023/01/15 02:35:35;;;;;;;;;;;11.40;99.90;;;;;;5114718;28;19993;-72
2023/01/15 02:38:05;;;;;;;;;;;11.50;99.90;;;;;;5096031;28;20100;-72
2023/01/15 02:40:31;;;;;;;;;;;11.50;99.90;;;;;;5096020;28;19910;-72
2023/01/15 02:43:00;;;;;;;;;;;11.40;99.90;;;;;;5114396;28;19910;-72
2023/01/15 02:45:30;;;;;;;;;;;11.50;99.90;;;;;;5114281;28;19908;-72
2023/01/15 02:48:05;;;;;;;;;;;11.50;99.90;;;;;;5114129;28;19951;-71
2023/01/15 02:50:36;;;;;;;;;;;11.50;99.90;;;;;;5114414;28;20002;-72
2023/01/15 02:53:06;;;;;;;;;;;11.50;99.90;;;;;;5114545;28;19935;-70
2023/01/15 02:55:38;;;;;;;;;;;11.50;99.90;;;;;;5114149;28;19903;-72
2023/01/15 02:58:12;;;;;;;;;;;11.50;99.90;;;;;;5095601;28;20337;-72
2023/01/15 03:00:40;;;;;;;;;;;11.40;99.90;;;;;;5114388;28;19939;-72
2023/01/15 03:03:13;;;;;;;;;;;11.50;99.90;;;;;;5113775;28;19960;-72
2023/01/15 03:05:43;;;;;;;;;;;11.40;99.90;;;;;;5114199;28;20029;-72
2023/01/15 03:08:22;;;;;;;;;;;11.40;99.90;;;;;;5113826;28;20010;-72
2023/01/15 03:11:11;;;;;;;;;;;11.40;99.90;;;;;;5113452;28;19984;-73
2023/01/15 03:13:52;;;;;;;;;;;11.40;99.90;;;;;;5100176;28;19910;-71
2023/01/15 03:16:35;;;;;;;;;;;11.40;99.90;;;;;;5114099;28;19951;-72
2023/01/15 03:19:22;;;;;;;;;;;11.30;99.90;;;;;;5095016;28;19911;-72
2023/01/15 03:21:55;;;;;;;;;;;11.30;99.90;;;;;;5113651;28;19920;-72
2023/01/15 03:24:43;;;;;;;;;;;11.30;99.90;;;;;;5113617;28;19904;-72
2023/01/15 03:27:09;;;;;;;;;;;11.30;99.90;;;;;;5113788;28;20359;-72
2023/01/15 03:29:37;;;;;;;;;;;11.30;99.90;;;;;;5113237;28;19907;-72
2023/01/15 03:32:04;;;;;;;;;;;11.30;99.90;;;;;;5113633;28;19905;-72
2023/01/15 03:34:35;;;;;;;;;;;11.30;99.90;;;;;;5113215;28;20217;-72
2023/01/15 03:37:01;;;;;;;;;;;11.30;99.90;;;;;;5113613;28;19976;-72
2023/01/15 03:39:27;;;;;;;;;;;11.30;99.90;;;;;;5094842;28;20391;-72
2023/01/15 03:42:11;;;;;;;;;;;11.30;99.90;;;;;;5094749;28;19999;-72
2023/01/15 03:44:37;;;;;;;;;;;11.30;99.90;;;;;;5113611;28;19904;-72
2023/01/15 03:47:09;;;;;;;;;;;11.20;99.90;;;;;;5113124;28;19910;-72
2023/01/15 03:50:04;;;;;;;;;;;11.20;99.90;;;;;;5094388;28;19904;-72
2023/01/15 03:52:41;;;;;;;;;;;11.30;99.90;;;;;;5109912;28;19907;-72
2023/01/15 03:55:51;;;;;;;;;;;11.30;99.90;;;;;;5094506;28;20319;-72
2023/01/15 03:58:34;;;;;;;;;;;11.30;99.90;;;;;;5090126;28;20336;-72
2023/01/15 04:01:01;;;;;;;;;;;11.30;99.90;;;;;;5092871;28;20263;-71
2023/01/15 04:03:29;;;;;;;;;;;11.20;99.90;;;;;;5092217;28;19965;-72
2023/01/15 04:05:56;;;;;;;;;;;11.20;99.90;;;;;;5092153;28;19943;-72
2023/01/15 04:08:45;;;;;;;;;;;11.20;99.90;;;;;;5092313;28;19994;-72
2023/01/15 04:11:11;;;;;;;;;;;11.10;99.90;;;;;;5092053;28;19904;-72
2023/01/15 04:13:36;;;;;;;;;;;11.10;99.90;;;;;;5092252;28;19911;-72
2023/01/15 04:16:03;;;;;;;;;;;11.10;99.90;;;;;;5092518;28;20361;-71
2023/01/15 04:20:57;;;;;;;;;;;11.00;99.90;;;;;;5098282;22;20018;-72
2023/01/15 04:23:23;;;;;;;;;;;11.00;99.90;;;;;;5091929;28;19904;-72
2023/01/15 04:25:50;;;;;;;;;;;11.00;99.90;;;;;;5092084;28;19915;-68
2023/01/15 04:28:18;;;;;;;;;;;11.00;99.90;;;;;;5092266;28;20377;-71
2023/01/15 04:30:47;;;;;;;;;;;11.10;99.90;;;;;;5090305;28;20260;-73
2023/01/15 04:33:14;;;;;;;;;;;11.00;99.90;;;;;;5090021;28;19904;-72
2023/01/15 04:35:40;;;;;;;;;;;11.00;99.90;;;;;;5092040;28;19910;-72
2023/01/15 04:38:24;;;;;;;;;;;11.00;99.90;;;;;;5091710;28;20007;-71
2023/01/15 04:46:33;;;;;;;;;;;11.10;99.90;;;;;;5049026;28;19952;-73
2023/01/15 04:48:59;;;;;;;;;;;11.10;99.90;;;;;;5048910;28;19977;-72
2023/01/15 04:51:35;;;;;;;;;;;11.00;99.90;;;;;;5049400;28;19911;-72
2023/01/15 04:56:31;;;;;;;;;;;11.00;99.90;;;;;;5090334;28;19978;-73
2023/01/15 04:59:01;;;;;;;;;;;10.90;99.90;;;;;;5073561;28;20328;-72
2023/01/15 05:01:26;;;;;;;;;;;10.80;99.90;;;;;;5098810;22;19960;-72
2023/01/15 05:03:52;;;;;;;;;;;10.80;99.90;;;;;;5089932;28;19970;-71
2023/01/15 05:06:30;;;;;;;;;;;10.70;99.90;;;;;;5091567;28;19907;-72
2023/01/15 05:09:00;;;;;;;;;;;10.70;99.90;;;;;;5091159;28;20311;-72
2023/01/15 05:11:26;;;;;;;;;;;10.70;99.90;;;;;;5091154;28;19923;-71
2023/01/15 05:14:03;;;;;;;;;;;10.70;99.90;;;;;;5091280;28;19904;-72
2023/01/15 05:16:31;;;;;;;;;;;10.80;99.90;;;;;;5091096;28;20375;-72
2023/01/15 05:18:58;;;;;;;;;;;10.90;99.90;;;;;;5093103;28;19979;-72
2023/01/15 05:21:25;;;;;;;;;;;10.80;99.90;;;;;;5111554;28;19976;-72
2023/01/15 05:23:52;;;;;;;;;;;10.80;99.90;;;;;;5111506;28;20209;-73
2023/01/15 05:26:30;;;;;;;;;;;10.80;99.90;;;;;;5111606;28;20258;-72
2023/01/15 05:28:58;;;;;;;;;;;10.80;99.90;;;;;;5093477;28;19915;-71
2023/01/15 05:31:25;;;;;;;;;;;10.80;99.90;;;;;;5111736;28;20374;-72
2023/01/15 05:33:51;;;;;;;;;;;10.70;99.90;;;;;;5114673;28;20005;-72
2023/01/15 05:36:28;;;;;;;;;;;10.80;99.90;;;;;;5115564;28;19911;-72
2023/01/15 05:38:56;;;;;;;;;;;10.80;99.90;;;;;;5115349;28;19912;-71
2023/01/15 05:44:08;;;;;;;;;;;10.80;99.90;;;;;;5115440;28;20418;-71
2023/01/15 05:46:34;;;;;;;;;;;10.80;99.90;;;;;;5115207;28;19956;-71
2023/01/15 05:49:01;;;;;;;;;;;10.80;99.90;;;;;;5115108;28;19930;-72
2023/01/15 05:51:27;;;;;;;;;;;10.80;99.90;;;;;;5115287;28;19926;-71
2023/01/15 05:53:53;;;;;;;;;;;10.80;99.90;;;;;;5115358;28;19994;-71
2023/01/15 05:56:19;;;;;;;;;;;10.90;99.90;;;;;;5115234;28;20024;-72
2023/01/15 05:58:45;;;;;;;;;;;11.00;99.90;;;;;;5115446;28;19916;-70
2023/01/15 06:01:15;;;;;;;;;;;10.90;99.90;;;;;;5096358;28;19915;-69
2023/01/15 06:03:40;;;;;;;;;;;10.90;99.90;;;;;;5105034;22;20013;-72
2023/01/15 06:06:06;;;;;;;;;;;10.90;99.90;;;;;;5095192;28;20014;-72
2023/01/15 06:08:32;;;;;;;;;;;10.90;99.90;;;;;;5094792;28;20352;-73
2023/01/15 06:10:58;;;;;;;;;;;10.80;99.90;;;;;;5076481;28;19915;-73
2023/01/15 06:13:24;;;;;;;;;;;10.80;99.90;;;;;;5095086;28;19904;-73
2023/01/15 06:15:50;;;;;;;;;;;10.80;99.90;;;;;;5094774;28;19904;-72
2023/01/15 06:18:15;;;;;;;;;;;10.80;99.90;;;;;;5076540;28;19916;-72
2023/01/15 06:20:43;;;;;;;;;;;10.80;99.90;;;;;;5076130;28;19990;-70
2023/01/15 06:23:08;;;;;;;;;;;10.70;99.90;;;;;;5094866;28;20327;-68
2023/01/15 06:25:36;;;;;;;;;;;10.70;99.90;;;;;;5094504;28;19904;-72
2023/01/15 06:28:22;;;;;;;;;;;10.70;99.90;;;;;;5094589;28;19904;-71
2023/01/15 06:30:54;;;;;;;;;;;10.70;99.90;;;;;;5094133;28;19904;-74
2023/01/15 06:33:29;;;;;;;;;;;10.70;99.90;;;;;;5094257;28;20260;-73
2023/01/15 06:35:56;;;;;;;;;;;10.70;99.90;;;;;;5094604;28;19904;-72
2023/01/15 06:38:22;;;;;;;;;;;10.90;99.90;;;;;;5094304;28;19912;-72
2023/01/15 06:40:48;;;;;;;;;;;11.50;99.90;;;;;;5094402;28;19904;-74
2023/01/15 06:49:14;;;;;;;;;;;14.00;99.90;;;;;;5093807;28;20321;-72
2023/01/15 06:51:39;;;;;;;;;;;14.80;99.90;;;;;;5093779;28;19987;-72
2023/01/15 06:54:11;;;;;;;;;;;15.30;99.90;;;;;;5093578;28;19942;-72
2023/01/15 06:56:37;;;;;;;;;;;15.60;99.90;;;;;;5105871;28;19943;-75
2023/01/15 06:59:19;;;;;;;;;;;16.20;99.90;;;;;;5114460;28;19943;-74
2023/01/15 07:01:45;;;;;;;;;;;17.00;99.90;;;;;;5095022;28;19903;-74
2023/01/15 07:04:12;;;;;;;;;;;17.90;99.90;;;;;;5095303;28;20370;-74
2023/01/15 07:06:38;;;;;;;;;;;18.30;99.90;;;;;;5114208;28;19904;-74
2023/01/15 07:09:15;;;;;;;;;;;19.00;99.90;;;;;;5114482;28;19904;-74
2023/01/15 07:11:49;;;;;;;;;;;19.50;99.90;;;;;;5113977;28;19904;-74
2023/01/15 07:14:17;;;;;;;;;;;20.20;99.90;;;;;;5114046;28;19903;-73
2023/01/15 07:16:43;;;;;;;;;;;20.80;99.90;;;;;;5113743;28;19955;-75
2023/01/15 07:19:10;;;;;;;;;;;21.30;99.90;;;;;;5113977;28;19942;-74
2023/01/15 07:21:35;;;;;;;;;;;21.80;99.90;;;;;;5107247;28;20423;-69
2023/01/15 07:24:01;;;;;;;;;;;22.50;99.90;;;;;;5103252;28;20308;-74
2023/01/15 07:26:27;;;;;;;;;;;22.90;99.90;;;;;;5113835;28;19911;-74
2023/01/15 07:28:56;;;;;;;;;;;23.50;99.90;;;;;;5113641;28;19943;-76
2023/01/15 07:31:28;;;;;;;;;;;23.60;99.90;;;;;;5113946;28;19953;-76
2023/01/15 07:34:18;;;;;;;;;;;23.30;99.90;;;;;;5113656;28;19904;-74
2023/01/15 07:36:57;;;;;;;;;;;23.50;99.90;;;;;;5113544;28;20387;-74
2023/01/15 07:39:23;;;;;;;;;;;23.90;99.90;;;;;;5113719;28;19923;-74
2023/01/15 07:49:54;;;;;;;;;;;24.50;99.90;;;;;;5053033;28;19959;-74
2023/01/15 07:52:26;;;;;;;;;;;23.00;99.90;;;;;;5053150;28;20011;-73
2023/01/15 07:55:11;;;;;;;;;;;22.20;99.90;;;;;;5052780;28;19939;-74
2023/01/15 07:57:40;;;;;;;;;;;21.30;99.90;;;;;;5031893;28;19919;-74
2023/01/15 08:00:15;;;;;;;;;;;20.70;99.90;;;;;;5032646;28;19905;-74
2023/01/15 08:02:43;;;;;;;;;;;19.60;99.90;;;;;;5032573;28;19909;-70
2023/01/15 08:05:10;;;;;;;;;;;18.50;99.90;;;;;;5032349;28;19996;-73
2023/01/15 08:07:39;;;;;;;;;;;17.80;99.90;;;;;;5032489;28;19913;-74
2023/01/15 08:10:05;;;;;;;;;;;17.70;99.90;;;;;;5032396;28;19905;-74
2023/01/15 08:15:15;;;;;;;;;;;17.50;99.90;;;;;;5032463;28;19992;-73
2023/01/15 08:17:59;;;;;;;;;;;17.70;99.90;;;;;;5032459;28;19936;-74
2023/01/15 08:20:25;;;;;;;;;;;17.50;99.90;;;;;;5032351;28;19905;-74
2023/01/15 08:22:52;;;;;;;;;;;17.50;99.90;;;;;;5032132;28;19951;-74
2023/01/15 08:25:19;;;;;;;;;;;17.30;99.90;;;;;;5032183;28;19999;-74
2023/01/15 08:28:06;;;;;;;;;;;17.30;99.90;;;;;;5032199;28;19977;-74
2023/01/15 08:30:32;;;;;;;;;;;17.30;99.90;;;;;;5032294;28;19905;-71
2023/01/15 08:33:01;;;;;;;;;;;17.50;99.90;;;;;;5031794;28;20039;-74
2023/01/15 08:35:33;;;;;;;;;;;17.50;99.90;;;;;;5031794;28;19925;-75
2023/01/15 08:38:08;;;;;;;;;;;17.70;99.90;;;;;;5031882;28;19992;-75
2023/01/15 08:40:57;;;;;;;;;;;17.40;99.90;;;;;;5032351;28;20282;-75
2023/01/15 08:43:34;;;;;;;;;;;17.30;99.90;;;;;;5031398;28;19905;-75
2023/01/15 08:46:00;;;;;;;;;;;17.50;99.90;;;;;;5032024;28;19948;-75
2023/01/15 08:48:28;;;;;;;;;;;17.60;99.90;;;;;;5031078;28;19915;-75
2023/01/15 08:50:59;;;;;;;;;;;17.60;99.90;;;;;;5031571;28;19905;-75
2023/01/15 08:53:25;;;;;;;;;;;17.50;99.90;;;;;;5031699;28;20298;-75
2023/01/15 08:56:09;;;;;;;;;;;17.60;99.90;;;;;;5037329;28;19912;-76
2023/01/15 08:58:49;;;;;;;;;;;17.70;99.90;;;;;;5051009;28;19913;-76
2023/01/15 09:01:16;;;;;;;;;;;17.60;99.90;;;;;;5050664;28;19905;-75
2023/01/15 09:04:00;;;;;;;;;;;17.30;99.90;;;;;;5050472;28;19928;-72
2023/01/15 09:06:29;;;;;;;;;;;17.00;99.90;;;;;;5050440;28;19912;-74
2023/01/15 09:08:55;;;;;;;;;;;16.80;99.90;;;;;;5050980;28;19958;-74
2023/01/15 09:11:21;;;;;;;;;;;16.70;99.90;;;;;;5051114;28;19905;-74
2023/01/15 09:13:49;;;;;;;;;;;16.70;99.90;;;;;;5051333;28;19931;-73
2023/01/15 09:16:19;;;;;;;;;;;16.90;99.90;;;;;;5050906;28;19999;-73
2023/01/15 09:18:46;;;;;;;;;;;17.00;99.90;;;;;;5051548;28;19988;-74
2023/01/15 09:21:16;;;;;;;;;;;16.90;99.90;;;;;;5051564;28;19905;-74
2023/01/15 09:23:42;;;;;;;;;;;16.80;99.90;;;;;;5051828;28;20313;-72
2023/01/15 09:26:30;;;;;;;;;;;17.00;99.90;;;;;;5051992;28;20387;-75
2023/01/15 09:29:11;;;;;;;;;;;17.10;99.90;;;;;;5063413;22;19922;-74
2023/01/15 09:31:36;;;;;;;;;;;16.90;99.90;;;;;;5092019;28;20091;-75
2023/01/15 09:34:12;;;;;;;;;;;17.10;99.90;;;;;;5073584;28;20339;-75
2023/01/15 09:36:37;;;;;;;;;;;17.00;99.90;;;;;;5092176;28;19916;-75
2023/01/15 09:39:04;;;;;;;;;;;17.00;99.90;;;;;;5091887;28;19912;-76
2023/01/15 09:44:38;;;;;;;;;;;16.90;99.90;;;;;;5076897;28;19952;-74
2023/01/15 09:47:08;;;;;;;;;;;16.80;99.90;;;;;;5091969;28;19926;-74
2023/01/15 09:49:43;;;;;;;;;;;16.90;99.90;;;;;;5090317;28;19911;-74
2023/01/15 09:52:20;;;;;;;;;;;17.10;99.90;;;;;;5091268;28;19915;-73
2023/01/15 09:55:13;;;;;;;;;;;17.30;99.90;;;;;;5072871;28;19991;-74
2023/01/15 09:57:45;;;;;;;;;;;17.40;99.90;;;;;;5071590;28;19916;-74
2023/01/15 10:00:26;;;;;;;;;;;17.40;99.90;;;;;;5071334;28;19912;-75
2023/01/15 10:02:54;;;;;;;;;;;17.30;99.90;;;;;;5071521;28;19904;-74
2023/01/15 10:05:37;;;;;;;;;;;17.40;99.90;;;;;;5070942;28;19982;-71
2023/01/15 10:08:08;;;;;;;;;;;17.50;99.90;;;;;;5070922;28;19904;-81
2023/01/15 10:10:47;;;;;;;;;;;17.70;99.90;;;;;;5070919;28;20441;-73
2023/01/15 10:13:15;;;;;;;;;;;17.70;99.90;;;;;;5071211;28;19905;-78
2023/01/15 10:15:44;;;;;;;;;;;17.50;99.90;;;;;;5052824;28;19904;-74
2023/01/15 10:18:14;;;;;;;;;;;17.80;99.90;;;;;;5070728;28;19959;-72
2023/01/15 10:20:55;;;;;;;;;;;18.00;99.90;;;;;;5073428;28;20363;-70
2023/01/15 10:23:53;;;;;;;;;;;17.70;99.90;;;;;;5074845;28;19930;-73
2023/01/15 10:26:48;;;;;;;;;;;17.80;99.90;;;;;;4993190;28;20362;-77
2023/01/15 10:29:25;;;;;;;;;;;18.00;99.90;;;;;;4992842;28;19918;-76
2023/01/15 10:31:57;;;;;;;;;;;18.30;99.90;;;;;;4993597;28;19910;-72
2023/01/15 10:34:32;;;;;;;;;;;18.30;99.90;;;;;;4976421;28;20045;-73
2023/01/15 10:37:03;;;;;;;;;;;18.20;99.90;;;;;;4993149;28;19996;-73
2023/01/15 10:39:33;;;;;;;;;;;18.20;99.90;;;;;;4992890;28;19917;-76
2023/01/15 10:42:04;;;;;;;;;;;17.70;99.90;;;;;;4976430;28;19921;-74
2023/01/15 10:44:30;;;;;;;;;;;17.80;99.90;;;;;;4993097;28;19905;-73
2023/01/15 10:46:58;;;;;;;;;;;17.70;99.90;;;;;;4992672;28;20302;-73
2023/01/15 10:49:27;;;;;;;;;;;17.80;99.90;;;;;;4992491;28;20373;-74
2023/01/15 10:51:55;;;;;;;;;;;17.90;99.90;;;;;;4992755;28;19906;-72
2023/01/15 10:54:24;;;;;;;;;;;18.00;99.90;;;;;;4992266;28;19929;-71
2023/01/15 10:56:55;;;;;;;;;;;17.90;99.90;;;;;;4976104;28;20032;-70
2023/01/15 10:59:33;;;;;;;;;;;17.80;99.90;;;;;;4992954;28;20192;-74
2023/01/15 11:02:02;;;;;;;;;;;18.00;99.90;;;;;;5036315;28;20045;-73
2023/01/15 11:04:30;;;;;;;;;;;17.80;99.90;;;;;;5073606;28;19918;-73
2023/01/15 11:06:56;;;;;;;;;;;17.90;99.90;;;;;;5055967;28;19947;-74
2023/01/15 11:09:30;;;;;;;;;;;17.90;99.90;;;;;;5073673;28;20383;-74
2023/01/15 11:20:28;;;;;;;;;;;17.20;99.90;;;;;;5073351;28;20267;-73
2023/01/15 11:22:55;;;;;;;;;;;17.40;99.90;;;;;;5073486;28;19977;-73
2023/01/15 11:25:25;;;;;;;;;;;17.70;99.90;;;;;;5074865;28;19927;-72
2023/01/15 11:27:51;;;;;;;;;;;17.60;99.90;;;;;;5075211;28;19908;-73
2023/01/15 11:30:30;;;;;;;;;;;17.40;99.90;;;;;;5092856;28;19920;-73
2023/01/15 11:32:57;;;;;;;;;;;17.40;99.90;;;;;;5093737;28;19914;-73
2023/01/15 11:35:23;;;;;;;;;;;17.80;99.90;;;;;;5093118;28;19966;-72
2023/01/15 11:37:49;;;;;;;;;;;17.60;99.90;;;;;;5093005;28;19955;-74
2023/01/15 11:40:16;;;;;;;;;;;17.70;99.90;;;;;;5093076;28;19904;-73
2023/01/15 11:51:07;;;;;;;;;;;18.00;99.90;;;;;;5093579;28;20099;-73
2023/01/15 11:53:37;;;;;;;;;;;18.20;99.90;;;;;;5074651;28;19982;-73
2023/01/15 11:56:05;;;;;;;;;;;18.20;99.90;;;;;;5093443;28;19983;-73
2023/01/15 11:58:33;;;;;;;;;;;18.00;99.90;;;;;;5093044;28;20016;-73
2023/01/15 12:00:59;;;;;;;;;;;18.40;99.90;;;;;;5092235;28;19911;-73
2023/01/15 12:03:29;;;;;;;;;;;18.40;99.90;;;;;;5092603;28;19949;-75
2023/01/15 12:05:57;;;;;;;;;;;18.10;99.90;;;;;;5074236;28;19908;-74
2023/01/15 12:08:31;;;;;;;;;;;18.30;99.90;;;;;;5093204;28;19904;-75
2023/01/15 12:11:03;;;;;;;;;;;18.40;99.90;;;;;;5111069;28;19957;-72
2023/01/15 12:13:45;;;;;;;;;;;18.40;99.90;;;;;;5100692;28;19904;-72
2023/01/15 12:16:29;;;;;;;;;;;18.30;99.90;;;;;;5092536;28;19904;-72
2023/01/15 12:19:04;;;;;;;;;;;18.00;99.90;;;;;;5092275;28;19912;-74
2023/01/15 12:21:56;;;;;;;;;;;17.80;99.90;;;;;;5074202;28;20217;-74
2023/01/15 12:24:41;;;;;;;;;;;18.00;99.90;;;;;;5092232;28;19915;-72
2023/01/15 12:27:26;;;;;;;;;;;18.10;99.90;;;;;;5080025;28;19911;-70
2023/01/15 12:29:56;;;;;;;;;;;18.20;99.90;;;;;;5112262;28;20015;-73
2023/01/15 12:32:24;;;;;;;;;;;18.30;99.90;;;;;;5112440;28;20216;-72
2023/01/15 12:34:55;;;;;;;;;;;18.30;99.90;;;;;;5112310;28;19903;-71
2023/01/15 12:37:28;;;;;;;;;;;18.10;99.90;;;;;;5112623;28;19912;-72
2023/01/15 12:40:12;;;;;;;;;;;18.10;99.90;;;;;;5093988;28;19904;-73
2023/01/15 12:45:29;;;;;;;;;;;18.20;99.90;;;;;;5113480;28;19914;-72
2023/01/15 12:48:22;;;;;;;;;;;18.40;99.90;;;;;;5093934;28;19959;-73
2023/01/15 12:50:59;;;;;;;;;;;18.40;99.90;;;;;;5032896;28;19985;-74
2023/01/15 12:53:45;;;;;;;;;;;18.30;99.90;;;;;;5050021;28;20371;-72
2023/01/15 12:56:19;;;;;;;;;;;18.30;99.90;;;;;;5032787;28;19913;-72
2023/01/15 12:58:53;;;;;;;;;;;18.40;99.90;;;;;;5010088;28;19917;-72
2023/01/15 13:01:22;;;;;;;;;;;18.40;99.90;;;;;;5010559;28;19960;-72
2023/01/15 13:03:57;;;;;;;;;;;18.30;99.90;;;;;;4993902;28;20349;-72
2023/01/15 13:06:26;;;;;;;;;;;17.90;99.90;;;;;;5010358;28;19905;-73
2023/01/15 13:09:10;;;;;;;;;;;18.10;99.90;;;;;;5009965;28;20005;-72
2023/01/15 13:11:36;;;;;;;;;;;18.20;99.90;;;;;;5010291;28;19928;-73
2023/01/15 13:14:02;;;;;;;;;;;18.10;99.90;;;;;;4993396;28;20310;-72
2023/01/15 13:16:36;;;;;;;;;;;18.20;99.90;;;;;;5010294;28;19948;-72
2023/01/15 13:19:13;;;;;;;;;;;18.20;99.90;;;;;;5009841;28;20346;-73
2023/01/15 13:21:42;;;;;;;;;;;18.30;99.90;;;;;;5038025;28;19986;-73
2023/01/15 13:24:10;;;;;;;;;;;18.30;99.90;;;;;;5071548;28;19908;-73
2023/01/15 13:26:46;;;;;;;;;;;18.40;99.90;;;;;;5071843;28;19961;-72
2023/01/15 13:29:12;;;;;;;;;;;18.20;99.90;;;;;;5071303;28;20383;-72
2023/01/15 13:32:13;;;;;;;;;;;18.00;99.90;;;;;;5072073;28;19908;-72
2023/01/15 13:34:59;;;;;;;;;;;17.80;99.90;;;;;;4973778;28;19906;-73
2023/01/15 13:37:26;;;;;;;;;;;17.90;99.90;;;;;;4986223;28;19914;-72
2023/01/15 13:39:56;;;;;;;;;;;17.80;99.90;;;;;;4990115;28;19913;-73
2023/01/15 13:42:33;;;;;;;;;;;17.70;99.90;;;;;;4990282;28;19905;-72
2023/01/15 13:45:04;;;;;;;;;;;17.60;99.90;;;;;;4990343;28;19913;-71
2023/01/15 13:47:31;;;;;;;;;;;17.60;99.90;;;;;;4989922;28;19999;-71
2023/01/15 13:49:59;;;;;;;;;;;17.60;99.90;;;;;;4990115;28;19931;-72
2023/01/15 13:52:27;;;;;;;;;;;17.70;99.90;;;;;;4990108;28;20349;-72
2023/01/15 13:54:57;;;;;;;;;;;17.60;99.90;;;;;;4976743;28;19945;-72
2023/01/15 13:57:24;;;;;;;;;;;17.50;99.90;;;;;;5011509;28;19909;-71
2023/01/15 13:59:51;;;;;;;;;;;17.40;99.90;;;;;;4996947;28;19933;-70
2023/01/15 14:02:28;;;;;;;;;;;17.40;99.90;;;;;;4996944;28;19909;-73
2023/01/15 14:04:54;;;;;;;;;;;17.30;99.90;;;;;;5013546;28;20408;-74
2023/01/15 14:07:30;;;;;;;;;;;17.30;99.90;;;;;;5013758;28;19910;-74
2023/01/15 14:10:06;;;;;;;;;;;17.20;99.90;;;;;;5075447;28;19999;-75
2023/01/15 14:12:58;;;;;;;;;;;17.10;99.90;;;;;;5075744;28;19904;-74
2023/01/15 14:15:42;;;;;;;;;;;16.90;99.90;;;;;;5076066;28;19904;-73
2023/01/15 14:18:29;;;;;;;;;;;16.80;99.90;;;;;;5057628;28;19952;-75
2023/01/15 14:21:09;;;;;;;;;;;16.80;99.90;;;;;;5075461;28;20324;-73
2023/01/15 14:23:44;;;;;;;;;;;16.80;99.90;;;;;;5075680;28;20002;-73
2023/01/15 14:26:09;;;;;;;;;;;16.60;99.90;;;;;;5083827;28;19904;-75
2023/01/15 14:28:41;;;;;;;;;;;16.40;99.90;;;;;;5095812;28;19904;-74
2023/01/15 14:31:33;;;;;;;;;;;16.40;99.90;;;;;;5093462;28;19942;-74
2023/01/15 14:34:01;;;;;;;;;;;16.20;99.90;;;;;;5095581;28;20457;-73
2023/01/15 14:36:28;;;;;;;;;;;16.10;99.90;;;;;;5095940;28;19935;-73
2023/01/15 14:38:57;;;;;;;;;;;16.10;99.90;;;;;;5095140;28;20077;-72
2023/01/15 14:41:26;;;;;;;;;;;16.00;99.90;;;;;;5095141;28;19904;-70
2023/01/15 14:43:52;;;;;;;;;;;15.90;99.90;;;;;;5095145;28;19997;-73
2023/01/15 14:46:18;;;;;;;;;;;15.80;99.90;;;;;;5094877;28;20385;-72
2023/01/15 14:48:44;;;;;;;;;;;15.60;99.90;;;;;;5095078;28;19904;-75
2023/01/15 14:51:12;;;;;;;;;;;15.60;99.90;;;;;;5094908;28;19904;-73
2023/01/15 14:53:43;;;;;;;;;;;15.60;99.90;;;;;;5076544;28;19978;-74
2023/01/15 14:56:27;;;;;;;;;;;15.70;99.90;;;;;;5094773;28;19904;-73
2023/01/15 14:59:12;;;;;;;;;;;15.70;99.90;;;;;;5094984;28;19912;-74
2023/01/15 15:01:59;;;;;;;;;;;15.60;99.90;;;;;;5094594;28;20252;-73
2023/01/15 15:04:34;;;;;;;;;;;15.60;99.90;;;;;;5094628;28;19904;-72
2023/01/15 15:07:24;;;;;;;;;;;15.50;99.90;;;;;;5094470;28;20011;-74
2023/01/15 15:09:50;;;;;;;;;;;15.50;99.90;;;;;;5094485;28;20348;-75
2023/01/15 15:12:18;;;;;;;;;;;15.50;99.90;;;;;;5095264;28;19904;-74
2023/01/15 15:14:47;;;;;;;;;;;15.50;99.90;;;;;;5094392;28;20006;-74
2023/01/15 15:17:18;;;;;;;;;;;15.40;99.90;;;;;;5094877;28;19904;-74
2023/01/15 15:19:46;;;;;;;;;;;15.40;99.90;;;;;;5094659;28;19908;-75
2023/01/15 15:22:15;;;;;;;;;;;15.40;99.90;;;;;;5095017;28;20003;-73
2023/01/15 15:24:48;;;;;;;;;;;15.50;99.90;;;;;;5076464;28;19973;-74
2023/01/15 15:27:16;;;;;;;;;;;15.50;99.90;;;;;;5094545;28;19943;-74
2023/01/15 15:29:43;;;;;;;;;;;15.50;99.90;;;;;;5094406;28;19961;-73
2023/01/15 15:32:14;;;;;;;;;;;15.40;99.90;;;;;;5094644;28;19911;-74
2023/01/15 15:34:45;;;;;;;;;;;15.40;99.90;;;;;;5094184;28;19930;-73
2023/01/15 15:37:19;;;;;;;;;;;15.30;99.90;;;;;;5094395;28;19904;-73
2023/01/15 15:40:00;;;;;;;;;;;15.20;99.90;;;;;;5094280;28;19912;-73
2023/01/15 15:51:03;;;;;;;;;;;14.70;99.90;;;;;;5094205;28;19957;-75
2023/01/15 15:53:30;;;;;;;;;;;14.70;99.90;;;;;;5075164;28;19905;-71